PWSweather.com
Personal Weather Stations
Station Observations
PWSLORIS
The Farm At Fox Bay, Loris, SC 29569

The Farm At Fox BayLoris, SC 29569

Lat: 34.067097, Lon: -78.86907

Elevation: 108

Station Type: Davis Vantage Pro2 with 24 hr. FARS and solar

http://www.lorisweather.com

Latest ConditionsUpdated 2:45:01 PM EDT Saturday, Mar 28, 2015
Currently Today's Max Today's Min Today's Average
Temperature 53.5°F11.9°C 53.6°F12.0°C 40.8°F4.9°C 45.8°F7.7°C
Dew Point 33.2°F0.7°C 43.7°F6.5°C 33.2°F0.7°C 39.4°F4.1°C
Winds 7.7 mph NW12.4 kmh NW 8.2 mph NNW13.2 kmh NNW - 2.4 mph 3.9 kmh
Wind Gusts 16.0 mph25.7 kmh 16.0 mph25.7 kmh - -
Humidity 46% 96% 46% 80%
Pressure 30.03 in1016.9 mb 30.06 in1017.9 mb 29.84 in1010.5 mb -
Precipitation - 0.02 in0.5 mm - -
Hour Temp Dew Point Humidity Winds Wind Gusts Pressure Precip Precip Rate Daily Precip Total
02:45 PM 53.5°F11.9°C 33.2°F0.7°C 46% 7.7 mph NW12.4 kmh NW 16.0 mph25.7 kmh 30.03 in1016.9 mb - 0.00 in0.0 mm 0.02 in0.5 mm
02:30 PM 53.6°F12.0°C 35.9°F2.2°C 51% 1.3 mph S2.1 kmh S 5.0 mph8.0 kmh 30.03 in1016.9 mb - 0.00 in0.0 mm 0.02 in0.5 mm
02:15 PM 51.4°F10.8°C 33.8°F1.0°C 51% 3.9 mph NW6.3 kmh NW 8.0 mph12.9 kmh 30.04 in1017.3 mb - 0.00 in0.0 mm 0.02 in0.5 mm
02:00 PM 51.4°F10.8°C 33.8°F1.0°C 51% 3.0 mph NW4.8 kmh NW 4.0 mph6.4 kmh 30.04 in1017.3 mb - 0.00 in0.0 mm 0.02 in0.5 mm
01:45 PM 51.4°F10.8°C 33.9°F1.1°C 51% 7.1 mph NNW11.4 kmh NNW 11.0 mph17.7 kmh 30.04 in1017.3 mb - 0.00 in0.0 mm 0.02 in0.5 mm
01:30 PM 49.7°F9.8°C 33.2°F0.7°C 53% 8.2 mph NNW13.2 kmh NNW 14.0 mph22.5 kmh 30.05 in1017.6 mb - 0.00 in0.0 mm 0.02 in0.5 mm
01:15 PM 52.2°F11.2°C 36.0°F2.2°C 54% 4.0 mph WNW6.4 kmh WNW 12.0 mph19.3 kmh 30.04 in1017.3 mb - 0.00 in0.0 mm 0.02 in0.5 mm
01:00 PM 49.6°F9.8°C 34.1°F1.2°C 55% 3.2 mph NW5.1 kmh NW 7.0 mph11.3 kmh 30.05 in1017.6 mb - 0.00 in0.0 mm 0.02 in0.5 mm
12:45 PM 51.0°F10.6°C 35.4°F1.9°C 55% 5.7 mph NW9.2 kmh NW 9.0 mph14.5 kmh 30.05 in1017.6 mb - 0.00 in0.0 mm 0.02 in0.5 mm
12:30 PM 50.0°F10.0°C 35.8°F2.1°C 58% 2.2 mph NW3.5 kmh NW 9.0 mph14.5 kmh 30.05 in1017.6 mb - 0.00 in0.0 mm 0.02 in0.5 mm
12:15 PM 49.4°F9.7°C 35.6°F2.0°C 59% 2.2 mph NNW3.5 kmh NNW 8.0 mph12.9 kmh 30.06 in1017.9 mb - 0.00 in0.0 mm 0.02 in0.5 mm
12:00 PM 50.1°F10.1°C 36.4°F2.4°C 59% 5.0 mph NW8.0 kmh NW 8.0 mph12.9 kmh 30.05 in1017.6 mb - 0.00 in0.0 mm 0.02 in0.5 mm
11:45 AM 47.8°F8.8°C 35.8°F2.1°C 63% 3.5 mph N5.6 kmh N 7.0 mph11.3 kmh 30.06 in1017.9 mb - 0.00 in0.0 mm 0.02 in0.5 mm
11:30 AM 48.8°F9.3°C 34.2°F1.2°C 57% 6.0 mph NW9.7 kmh NW 10.0 mph16.1 kmh 30.06 in1017.9 mb - 0.00 in0.0 mm 0.02 in0.5 mm
11:15 AM 48.0°F8.9°C 34.8°F1.6°C 60% 6.2 mph N10.0 kmh N 9.0 mph14.5 kmh 30.05 in1017.6 mb - 0.00 in0.0 mm 0.02 in0.5 mm
11:00 AM 46.6°F8.1°C 34.7°F1.5°C 63% 3.2 mph NNW5.1 kmh NNW 6.0 mph9.7 kmh 30.05 in1017.6 mb - 0.00 in0.0 mm 0.02 in0.5 mm
10:45 AM 46.7°F8.2°C 36.7°F2.6°C 68% 7.2 mph NW11.6 kmh NW 10.0 mph16.1 kmh 30.05 in1017.6 mb - 0.00 in0.0 mm 0.02 in0.5 mm
10:30 AM 46.0°F7.8°C 37.1°F2.8°C 71% 5.1 mph NW8.2 kmh NW 8.0 mph12.9 kmh 30.04 in1017.3 mb - 0.00 in0.0 mm 0.02 in0.5 mm
10:15 AM 46.0°F7.8°C 38.2°F3.4°C 74% 1.3 mph NNE2.1 kmh NNE 6.0 mph9.7 kmh 30.04 in1017.3 mb - 0.00 in0.0 mm 0.02 in0.5 mm
10:00 AM 44.5°F6.9°C 37.1°F2.8°C 75% 1.5 mph N2.4 kmh N 5.0 mph8.0 kmh 30.03 in1016.9 mb - 0.00 in0.0 mm 0.02 in0.5 mm
09:45 AM 45.1°F7.3°C 36.6°F2.6°C 72% 5.1 mph NNW8.2 kmh NNW 7.0 mph11.3 kmh 30.03 in1016.9 mb - 0.00 in0.0 mm 0.02 in0.5 mm
09:30 AM 45.6°F7.6°C 36.8°F2.7°C 71% 6.2 mph NE10.0 kmh NE 10.0 mph16.1 kmh 30.03 in1016.9 mb - 0.00 in0.0 mm 0.02 in0.5 mm
09:15 AM 44.7°F7.1°C 36.2°F2.3°C 72% 5.9 mph N9.5 kmh N 10.0 mph16.1 kmh 30.02 in1016.6 mb - 0.00 in0.0 mm 0.02 in0.5 mm
09:00 AM 45.1°F7.3°C 39.3°F4.1°C 80% 7.3 mph N11.7 kmh N 13.0 mph20.9 kmh 30.01 in1016.3 mb - 0.00 in0.0 mm 0.02 in0.5 mm
08:45 AM 43.8°F6.6°C 40.8°F4.9°C 89% 5.1 mph N8.2 kmh N 11.0 mph17.7 kmh 30.01 in1016.3 mb - 0.00 in0.0 mm 0.02 in0.5 mm
08:30 AM 43.5°F6.4°C 41.6°F5.3°C 93% 2.5 mph N4.0 kmh N 4.0 mph6.4 kmh 30.01 in1016.3 mb - 0.00 in0.0 mm 0.02 in0.5 mm
08:15 AM 42.9°F6.1°C 41.0°F5.0°C 93% 1.1 mph N1.8 kmh N 1.0 mph1.6 kmh 30.00 in1015.9 mb - 0.00 in0.0 mm 0.02 in0.5 mm
08:00 AM 42.5°F5.8°C 40.9°F4.9°C 94% 0.1 mph NNE0.2 kmh NNE 2.0 mph3.2 kmh 30.00 in1015.9 mb - 0.00 in0.0 mm 0.02 in0.5 mm
07:45 AM 42.3°F5.7°C 41.0°F5.0°C 95% 0.9 mph N1.4 kmh N 1.0 mph1.6 kmh 29.99 in1015.6 mb - 0.00 in0.0 mm 0.02 in0.5 mm
07:30 AM 41.8°F5.4°C 40.8°F4.9°C 96% 3.7 mph NNE6.0 kmh NNE 6.0 mph9.7 kmh 29.98 in1015.2 mb - 0.00 in0.0 mm 0.02 in0.5 mm
07:15 AM 41.5°F5.3°C 40.4°F4.7°C 96% Calm Calm -- 29.97 in1014.9 mb - 0.00 in0.0 mm 0.02 in0.5 mm
07:00 AM 41.1°F5.1°C 39.8°F4.3°C 95% Calm Calm -- 29.96 in1014.6 mb - 0.00 in0.0 mm 0.02 in0.5 mm
06:45 AM 40.8°F4.9°C 39.5°F4.2°C 95% Calm Calm -- 29.95 in1014.2 mb - 0.00 in0.0 mm 0.02 in0.5 mm
06:30 AM 40.8°F4.9°C 39.5°F4.2°C 95% Calm Calm -- 29.94 in1013.9 mb - 0.00 in0.0 mm 0.02 in0.5 mm
06:15 AM 40.8°F4.9°C 39.2°F4.0°C 94% Calm Calm -- 29.93 in1013.5 mb - 0.00 in0.0 mm 0.02 in0.5 mm
06:00 AM 41.9°F5.5°C 40.0°F4.4°C 93% Calm Calm -- 29.93 in1013.5 mb - 0.01 in0.3 mm 0.02 in0.5 mm
05:45 AM 43.2°F6.2°C 41.0°F5.0°C 92% 3.7 mph NW6.0 kmh NW 7.0 mph11.3 kmh 29.92 in1013.2 mb - 0.02 in0.5 mm 0.02 in0.5 mm
05:30 AM 44.7°F7.1°C 43.4°F6.3°C 95% 5.5 mph NW8.9 kmh NW 7.0 mph11.3 kmh 29.91 in1012.9 mb - 0.00 in0.0 mm 0.00 in0.0 mm
05:15 AM 44.8°F7.1°C 43.7°F6.5°C 96% 3.5 mph NNW5.6 kmh NNW 6.0 mph9.7 kmh 29.90 in1012.5 mb - 0.00 in0.0 mm 0.00 in0.0 mm
05:00 AM 44.2°F6.8°C 42.9°F6.1°C 95% Calm Calm -- 29.90 in1012.5 mb - 0.00 in0.0 mm 0.00 in0.0 mm
04:45 AM 43.8°F6.6°C 42.5°F5.8°C 95% Calm Calm -- 29.89 in1012.2 mb - 0.00 in0.0 mm 0.00 in0.0 mm
04:30 AM 44.1°F6.7°C 42.5°F5.8°C 94% Calm Calm -- 29.89 in1012.2 mb - 0.00 in0.0 mm 0.00 in0.0 mm
04:15 AM 45.0°F7.2°C 43.4°F6.3°C 94% Calm Calm -- 29.88 in1011.9 mb - 0.00 in0.0 mm 0.00 in0.0 mm
04:00 AM 45.3°F7.4°C 43.6°F6.4°C 94% Calm Calm -- 29.88 in1011.9 mb - 0.00 in0.0 mm 0.00 in0.0 mm
03:45 AM 45.0°F7.2°C 43.4°F6.3°C 94% Calm Calm -- 29.88 in1011.9 mb - 0.00 in0.0 mm 0.00 in0.0 mm
03:30 AM 44.9°F7.2°C 43.0°F6.1°C 93% Calm Calm -- 29.88 in1011.9 mb - 0.00 in0.0 mm 0.00 in0.0 mm
03:15 AM 45.1°F7.3°C 43.2°F6.2°C 93% Calm Calm -- 29.87 in1011.5 mb - 0.00 in0.0 mm 0.00 in0.0 mm
03:00 AM 44.9°F7.2°C 43.0°F6.1°C 93% Calm Calm -- 29.88 in1011.9 mb - 0.00 in0.0 mm 0.00 in0.0 mm
02:45 AM 44.5°F6.9°C 42.6°F5.9°C 93% Calm Calm -- 29.88 in1011.9 mb - 0.00 in0.0 mm 0.00 in0.0 mm
02:30 AM 44.5°F6.9°C 42.6°F5.9°C 93% Calm Calm -- 29.87 in1011.5 mb - 0.00 in0.0 mm 0.00 in0.0 mm
02:15 AM 44.4°F6.9°C 42.5°F5.8°C 93% Calm Calm -- 29.87 in1011.5 mb - 0.00 in0.0 mm 0.00 in0.0 mm
02:00 AM 44.5°F6.9°C 42.3°F5.7°C 92% Calm Calm -- 29.87 in1011.5 mb - 0.00 in0.0 mm 0.00 in0.0 mm
01:45 AM 44.6°F7.0°C 42.4°F5.8°C 92% Calm Calm -- 29.86 in1011.2 mb - 0.00 in0.0 mm 0.00 in0.0 mm
01:30 AM 44.8°F7.1°C 42.6°F5.9°C 92% Calm Calm -- 29.86 in1011.2 mb - 0.00 in0.0 mm 0.00 in0.0 mm
01:15 AM 44.8°F7.1°C 42.6°F5.9°C 92% Calm Calm -- 29.86 in1011.2 mb - 0.00 in0.0 mm 0.00 in0.0 mm
01:00 AM 45.1°F7.3°C 42.3°F5.7°C 90% Calm Calm -- 29.86 in1011.2 mb - 0.00 in0.0 mm 0.00 in0.0 mm
12:45 AM 45.3°F7.4°C 42.2°F5.7°C 89% Calm Calm -- 29.86 in1011.2 mb - 0.00 in0.0 mm 0.00 in0.0 mm
12:30 AM 45.4°F7.4°C 42.1°F5.6°C 88% 1.5 mph NW2.4 kmh NW 5.0 mph8.0 kmh 29.85 in1010.8 mb - 0.00 in0.0 mm 0.00 in0.0 mm
12:15 AM 45.5°F7.5°C 42.4°F5.8°C 89% 2.8 mph NNW4.5 kmh NNW 5.0 mph8.0 kmh 29.84 in1010.5 mb - 0.00 in0.0 mm 0.00 in0.0 mm
12:00 AM 45.8°F7.7°C 43.3°F6.3°C 91% 2.0 mph NW3.2 kmh NW 7.0 mph11.3 kmh 29.84 in1010.5 mb - 0.00 in0.0 mm 0.00 in0.0 mm